createdAt,value
2019-02-20T00:01:22.842Z,14.00
2019-02-20T00:03:50.222Z,14.37
2019-02-20T00:06:17.649Z,14.23
2019-02-20T00:08:45.060Z,13.93
2019-02-20T00:11:12.486Z,14.73
2019-02-20T00:13:39.894Z,15.67
2019-02-20T00:16:07.332Z,15.90
2019-02-20T00:18:34.765Z,15.07
2019-02-20T00:21:02.253Z,15.20
2019-02-20T00:23:29.678Z,15.43
2019-02-20T00:25:57.106Z,16.03
2019-02-20T00:28:24.532Z,14.77
2019-02-20T00:30:51.951Z,15.67
2019-02-20T00:33:19.381Z,16.37
2019-02-20T00:35:46.785Z,16.90
2019-02-20T00:38:14.227Z,16.80
2019-02-20T00:40:41.664Z,16.00
2019-02-20T00:43:09.098Z,16.50
2019-02-20T00:45:51.814Z,16.90
2019-02-20T00:48:19.228Z,16.77
2019-02-20T00:50:46.658Z,17.30
2019-02-20T00:53:14.060Z,17.53
2019-02-20T00:55:41.499Z,17.20
2019-02-20T00:58:08.896Z,17.13
2019-02-20T01:00:36.309Z,16.80
2019-02-20T01:03:03.735Z,16.90
2019-02-20T01:05:31.190Z,18.37
2019-02-20T01:07:58.595Z,16.87
2019-02-20T01:10:26.001Z,17.20
2019-02-20T01:12:53.432Z,18.37
2019-02-20T01:15:20.845Z,18.37
2019-02-20T01:17:48.281Z,17.80
2019-02-20T01:20:15.694Z,17.90
2019-02-20T01:22:43.132Z,17.50
2019-02-20T01:25:10.538Z,16.27
2019-02-20T01:27:37.961Z,16.67
2019-02-20T01:30:05.398Z,18.63
2019-02-20T01:32:32.794Z,16.97
2019-02-20T01:35:00.287Z,18.23
2019-02-20T01:37:27.622Z,18.87
2019-02-20T01:39:55.063Z,18.70
2019-02-20T01:42:24.851Z,17.93
2019-02-20T01:44:52.272Z,17.97
2019-02-20T01:47:19.699Z,19.83
2019-02-20T01:49:47.134Z,18.93
2019-02-20T01:52:14.563Z,17.70
2019-02-20T01:54:41.986Z,18.27
2019-02-20T01:57:09.433Z,18.13
2019-02-20T01:59:36.855Z,18.77
2019-02-20T02:02:04.253Z,19.33
2019-02-20T02:04:31.683Z,17.93
2019-02-20T02:06:59.090Z,18.43
2019-02-20T02:09:26.529Z,17.20
2019-02-20T02:11:53.939Z,18.20
2019-02-20T02:14:21.350Z,18.20
2019-02-20T02:16:48.790Z,17.97
2019-02-20T02:19:16.212Z,18.37
2019-02-20T02:21:43.657Z,17.63
2019-02-20T02:24:11.068Z,18.53
2019-02-20T02:26:38.466Z,18.60
2019-02-20T02:29:05.945Z,19.03
2019-02-20T02:31:33.318Z,17.70
2019-02-20T02:34:00.770Z,18.23
2019-02-20T02:36:28.178Z,18.03
2019-02-20T02:38:55.593Z,19.60
2019-02-20T02:41:23.029Z,19.50
2019-02-20T02:43:50.432Z,18.40
2019-02-20T02:46:17.839Z,19.23
2019-02-20T02:48:45.267Z,19.53
2019-02-20T02:51:12.677Z,19.17
2019-02-20T02:53:40.094Z,18.43
2019-02-20T02:56:07.504Z,19.87
2019-02-20T02:58:34.928Z,19.97
2019-02-20T03:01:02.363Z,20.63
2019-02-20T03:03:29.770Z,21.13
2019-02-20T03:05:57.218Z,20.23
2019-02-20T03:08:24.620Z,21.23
2019-02-20T03:10:52.019Z,20.03
2019-02-20T03:13:19.456Z,20.20
2019-02-20T03:15:46.863Z,19.33
2019-02-20T03:18:14.325Z,18.93
2019-02-20T03:20:41.747Z,20.00
2019-02-20T03:23:09.172Z,21.00
2019-02-20T03:25:36.580Z,19.27
2019-02-20T03:28:04.020Z,20.30
2019-02-20T03:30:31.429Z,19.83
2019-02-20T03:32:58.874Z,19.03
2019-02-20T03:35:26.290Z,19.73
2019-02-20T03:37:53.690Z,18.60
2019-02-20T03:40:21.119Z,24.17
2019-02-20T03:42:48.558Z,20.60
2019-02-20T03:45:15.963Z,19.47
2019-02-20T03:47:43.365Z,19.57
2019-02-20T03:50:10.812Z,20.90
2019-02-20T03:52:38.241Z,19.93
2019-02-20T03:55:05.663Z,19.57
2019-02-20T03:57:33.063Z,19.57
2019-02-20T04:00:00.491Z,20.07
2019-02-20T04:02:27.899Z,23.05
2019-02-20T04:04:55.340Z,20.87
2019-02-20T04:07:22.782Z,20.80
2019-02-20T04:09:50.197Z,20.63
2019-02-20T04:12:17.633Z,21.03
2019-02-20T04:14:45.071Z,20.43
2019-02-20T04:17:12.506Z,20.57
2019-02-20T04:19:39.902Z,20.33
2019-02-20T04:22:07.344Z,20.23
2019-02-20T04:24:34.776Z,20.70
2019-02-20T04:27:02.204Z,21.27
2019-02-20T04:29:29.632Z,20.30
2019-02-20T04:31:57.041Z,22.10
2019-02-20T04:34:24.479Z,21.57
2019-02-20T04:36:51.914Z,21.33
2019-02-20T04:39:19.353Z,21.43
2019-02-20T04:41:46.760Z,21.50
2019-02-20T04:44:14.195Z,21.80
2019-02-20T04:46:41.670Z,20.13
2019-02-20T04:49:09.079Z,20.93
2019-02-20T04:51:36.487Z,19.83
2019-02-20T04:54:12.944Z,20.10
2019-02-20T04:56:31.344Z,20.60
2019-02-20T04:58:58.773Z,20.30
2019-02-20T05:01:26.234Z,20.13
2019-02-20T05:03:53.649Z,19.13
2019-02-20T05:06:21.081Z,19.03
2019-02-20T05:08:48.516Z,20.10
2019-02-20T05:11:15.925Z,19.60
2019-02-20T05:13:43.362Z,20.87
2019-02-20T05:16:12.365Z,20.67
2019-02-20T05:18:38.221Z,20.40
2019-02-20T05:21:05.662Z,21.13
2019-02-20T05:23:33.067Z,22.80
2019-02-20T05:26:00.498Z,20.90
2019-02-20T05:28:27.936Z,21.53
2019-02-20T05:30:55.354Z,23.10
2019-02-20T05:33:22.792Z,22.27
2019-02-20T05:35:50.195Z,22.70
2019-02-20T05:38:17.637Z,22.90
2019-02-20T05:40:45.099Z,22.30
2019-02-20T05:43:12.536Z,24.30
2019-02-20T05:45:39.945Z,25.27
2019-02-20T05:48:07.375Z,24.97
2019-02-20T05:50:34.790Z,25.27
2019-02-20T05:53:02.230Z,26.10
2019-02-20T05:55:29.629Z,26.07
2019-02-20T05:57:57.056Z,25.63
2019-02-20T06:00:24.468Z,26.03
2019-02-20T06:02:51.906Z,26.93
2019-02-20T06:05:19.332Z,26.13
2019-02-20T06:07:46.747Z,25.77
2019-02-20T06:10:14.189Z,26.93
2019-02-20T06:12:41.618Z,24.87
2019-02-20T06:15:09.064Z,25.57
2019-02-20T06:17:36.487Z,26.27
2019-02-20T06:20:03.926Z,24.83
2019-02-20T06:22:31.339Z,26.20
2019-02-20T06:24:58.765Z,24.40
2019-02-20T06:27:26.177Z,26.00
2019-02-20T06:29:53.621Z,24.70
2019-02-20T06:32:21.041Z,26.13
2019-02-20T06:34:48.675Z,24.83
2019-02-20T06:37:16.144Z,24.50
2019-02-20T06:39:43.568Z,24.03
2019-02-20T06:42:11.000Z,26.17
2019-02-20T06:44:38.436Z,25.07
2019-02-20T06:47:05.843Z,26.63
2019-02-20T06:49:33.289Z,26.40
2019-02-20T06:52:00.759Z,25.50
2019-02-20T06:54:28.182Z,27.10
2019-02-20T06:56:55.587Z,24.70
2019-02-20T06:59:23.026Z,26.77
2019-02-20T07:01:50.432Z,26.77
2019-02-20T07:04:17.845Z,25.77
2019-02-20T07:06:45.280Z,24.80
2019-02-20T07:09:40.661Z,24.93
2019-02-20T07:12:26.305Z,25.73
2019-02-20T07:15:05.406Z,24.73
2019-02-20T07:17:47.635Z,24.57
2019-02-20T07:20:51.432Z,25.30
2019-02-20T07:23:39.933Z,24.73
2019-02-20T07:26:16.081Z,23.73
2019-02-20T07:28:55.545Z,23.90
2019-02-20T07:31:23.080Z,24.40
2019-02-20T07:33:50.485Z,24.40
2019-02-20T07:36:17.896Z,24.77
2019-02-20T07:38:45.334Z,22.53
2019-02-20T07:41:12.731Z,25.37
2019-02-20T07:43:40.156Z,25.13
2019-02-20T07:46:07.652Z,24.17
2019-02-20T07:48:35.080Z,23.80
2019-02-20T07:51:02.515Z,25.80
2019-02-20T07:53:29.929Z,24.33
2019-02-20T07:55:57.359Z,25.97
2019-02-20T07:58:24.758Z,23.67
2019-02-20T08:00:52.193Z,24.67
2019-02-20T08:03:19.622Z,24.40
2019-02-20T08:05:47.031Z,23.40
2019-02-20T08:08:14.442Z,25.30
2019-02-20T08:10:41.867Z,23.33
2019-02-20T08:13:09.606Z,24.00
2019-02-20T08:15:36.711Z,22.00
2019-02-20T08:18:04.132Z,23.13
2019-02-20T08:20:31.538Z,21.80
2019-02-20T08:22:58.979Z,22.40
2019-02-20T08:25:26.408Z,22.87
2019-02-20T08:27:53.848Z,22.97
2019-02-20T08:30:21.250Z,22.40
2019-02-20T08:32:48.693Z,22.10
2019-02-20T08:35:16.095Z,22.83
2019-02-20T08:37:43.541Z,22.40
2019-02-20T08:40:10.951Z,22.97
2019-02-20T08:42:38.364Z,22.43
2019-02-20T08:45:05.792Z,20.57
2019-02-20T08:47:33.230Z,19.40
2019-02-20T08:50:00.670Z,18.93
2019-02-20T08:52:28.106Z,19.77
2019-02-20T08:54:55.539Z,19.03
2019-02-20T08:57:22.945Z,18.80
2019-02-20T08:59:51.755Z,19.70
2019-02-20T09:02:17.772Z,19.43
2019-02-20T09:04:45.193Z,19.00
2019-02-20T09:07:12.622Z,17.57
2019-02-20T09:09:40.029Z,18.10
2019-02-20T09:12:07.445Z,18.40
2019-02-20T09:14:34.859Z,18.63
2019-02-20T09:17:02.272Z,17.90
2019-02-20T09:19:29.687Z,20.57
2019-02-20T09:21:57.088Z,18.53
2019-02-20T09:24:24.532Z,17.93
2019-02-20T09:26:51.939Z,19.13
2019-02-20T09:29:19.354Z,18.23
2019-02-20T09:31:46.753Z,17.93
2019-02-20T09:34:14.270Z,19.23
2019-02-20T09:36:41.727Z,18.63
2019-02-20T09:39:27.133Z,19.03
2019-02-20T09:41:54.541Z,18.20
2019-02-20T09:44:21.967Z,18.00
2019-02-20T09:46:49.396Z,17.37
2019-02-20T09:49:16.831Z,17.30
2019-02-20T09:51:44.239Z,17.90
2019-02-20T09:54:11.666Z,18.53
2019-02-20T09:56:39.090Z,18.40
2019-02-20T09:59:06.496Z,17.73
2019-02-20T10:01:33.919Z,17.30
2019-02-20T10:04:01.340Z,17.53
2019-02-20T10:06:28.787Z,16.13
2019-02-20T10:08:56.203Z,17.23
2019-02-20T10:11:23.620Z,16.93
2019-02-20T10:13:51.070Z,17.60
2019-02-20T10:16:18.485Z,17.07
2019-02-20T10:18:46.031Z,18.50
2019-02-20T10:21:13.428Z,16.77
2019-02-20T10:23:40.894Z,16.77
2019-02-20T10:26:08.333Z,17.00
2019-02-20T10:28:35.739Z,15.50
2019-02-20T10:31:03.177Z,15.97
2019-02-20T10:33:30.584Z,16.83
2019-02-20T10:35:58.023Z,15.57
2019-02-20T10:38:25.440Z,15.13
2019-02-20T10:40:52.872Z,16.73
2019-02-20T10:43:20.280Z,15.90
2019-02-20T10:45:47.839Z,15.30
2019-02-20T10:48:15.234Z,14.60
2019-02-20T10:50:42.649Z,15.03
2019-02-20T10:53:10.095Z,15.80
2019-02-20T10:55:37.507Z,17.57
2019-02-20T10:58:04.955Z,16.77
2019-02-20T11:00:32.365Z,17.83
2019-02-20T11:02:59.774Z,18.43
2019-02-20T11:05:27.211Z,16.87
2019-02-20T11:07:54.647Z,18.47
2019-02-20T11:10:24.022Z,18.03
2019-02-20T11:12:50.215Z,16.87
2019-02-20T11:15:16.932Z,17.77
2019-02-20T11:17:44.381Z,17.33
2019-02-20T11:20:13.588Z,17.77
2019-02-20T11:22:39.233Z,15.33
2019-02-20T11:25:06.680Z,16.20
2019-02-20T11:27:34.095Z,15.43
2019-02-20T11:30:01.530Z,14.13
2019-02-20T11:32:28.997Z,13.00
2019-02-20T11:34:56.397Z,13.00
2019-02-20T11:37:23.836Z,13.40
2019-02-20T11:39:51.237Z,13.83
2019-02-20T11:42:18.680Z,14.07
2019-02-20T11:44:46.111Z,13.50
2019-02-20T11:47:13.547Z,13.93
2019-02-20T11:49:42.022Z,14.33
2019-02-20T11:52:09.475Z,14.10
2019-02-20T11:54:36.881Z,12.63
2019-02-20T11:57:04.312Z,16.07
2019-02-20T11:59:31.743Z,13.50
2019-02-20T12:01:59.141Z,13.70
2019-02-20T12:04:26.597Z,13.47
2019-02-20T12:06:54.036Z,13.67
2019-02-20T12:09:21.465Z,13.30
2019-02-20T12:11:48.878Z,13.90
2019-02-20T12:14:16.314Z,11.70
2019-02-20T12:16:43.749Z,12.20
2019-02-20T12:19:11.257Z,13.00
2019-02-20T12:21:38.678Z,12.90
2019-02-20T12:24:06.094Z,12.57
2019-02-20T12:26:35.314Z,12.90
2019-02-20T12:29:00.925Z,12.03
2019-02-20T12:31:28.332Z,11.87
2019-02-20T12:33:55.760Z,13.10
2019-02-20T12:36:23.187Z,11.50
2019-02-20T12:38:50.591Z,12.70
2019-02-20T12:41:18.018Z,12.47
2019-02-20T12:43:45.425Z,13.63
2019-02-20T12:46:12.851Z,13.67
2019-02-20T12:48:40.259Z,13.33
2019-02-20T12:51:07.689Z,13.20
2019-02-20T12:53:35.116Z,11.70
2019-02-20T12:56:09.792Z,11.70
2019-02-20T12:58:29.972Z,12.27
2019-02-20T13:00:57.390Z,12.47
2019-02-20T13:03:24.844Z,13.13
2019-02-20T13:05:52.259Z,12.63
2019-02-20T13:08:19.664Z,12.53
2019-02-20T13:10:47.110Z,11.87
2019-02-20T13:13:14.524Z,11.50
2019-02-20T13:15:41.921Z,12.80
2019-02-20T13:18:09.379Z,11.03
2019-02-20T13:20:36.753Z,10.97
2019-02-20T13:23:04.190Z,11.90
2019-02-20T13:25:31.588Z,12.63
2019-02-20T13:27:59.016Z,11.47
2019-02-20T13:30:26.420Z,11.43
2019-02-20T13:32:53.856Z,12.80
2019-02-20T13:35:21.273Z,11.40
2019-02-20T13:37:48.677Z,12.07
2019-02-20T13:40:16.101Z,11.57
2019-02-20T13:42:43.502Z,10.57
2019-02-20T13:45:11.009Z,11.50
2019-02-20T13:47:40.290Z,11.40
2019-02-20T13:50:08.712Z,10.87
2019-02-20T13:52:36.117Z,11.13
2019-02-20T13:55:03.558Z,12.07
2019-02-20T13:57:30.966Z,10.57
2019-02-20T13:59:58.382Z,11.80
2019-02-20T14:02:25.809Z,11.17
2019-02-20T14:04:53.246Z,10.67
2019-02-20T14:07:20.664Z,9.43
2019-02-20T14:09:48.069Z,9.67
2019-02-20T14:12:15.521Z,10.13
2019-02-20T14:14:42.921Z,9.67
2019-02-20T14:17:10.361Z,8.87
2019-02-20T14:19:37.761Z,8.80
2019-02-20T14:22:05.226Z,8.57
2019-02-20T14:24:32.609Z,9.47
2019-02-20T14:27:00.006Z,9.10
2019-02-20T14:29:27.470Z,7.90
2019-02-20T14:31:54.844Z,8.33
2019-02-20T14:34:22.266Z,9.47
2019-02-20T14:36:49.662Z,7.93
2019-02-20T14:39:17.090Z,8.10
2019-02-20T14:41:44.541Z,8.30
2019-02-20T14:44:11.988Z,7.10
2019-02-20T14:46:39.392Z,7.93
2019-02-20T14:49:06.824Z,7.97
2019-02-20T14:51:34.238Z,7.70
2019-02-20T14:54:01.688Z,7.87
2019-02-20T14:56:29.425Z,8.07
2019-02-20T14:58:56.853Z,7.30
2019-02-20T15:01:24.276Z,7.83
2019-02-20T15:03:51.708Z,7.77
2019-02-20T15:06:19.172Z,8.10
2019-02-20T15:08:46.661Z,8.00
2019-02-20T15:11:14.090Z,8.13
2019-02-20T15:13:41.503Z,8.03
2019-02-20T15:16:08.962Z,7.43
2019-02-20T15:18:36.386Z,8.10
2019-02-20T15:21:03.789Z,8.57
2019-02-20T15:23:31.291Z,8.73
2019-02-20T15:25:58.707Z,7.27
2019-02-20T15:28:26.122Z,6.50
2019-02-20T15:30:53.573Z,5.87
2019-02-20T15:33:21.038Z,5.03
2019-02-20T15:35:48.432Z,5.87
2019-02-20T15:38:15.850Z,5.87
2019-02-20T15:40:43.254Z,5.93
2019-02-20T15:43:10.672Z,5.90
2019-02-20T15:45:38.128Z,5.73
2019-02-20T15:48:05.531Z,6.23
2019-02-20T15:50:32.936Z,5.63
2019-02-20T15:53:00.368Z,4.83
2019-02-20T15:55:27.781Z,5.30
2019-02-20T15:57:55.183Z,5.10
2019-02-20T16:00:22.602Z,5.07
2019-02-20T16:02:50.033Z,4.53
2019-02-20T16:05:17.469Z,5.10
2019-02-20T16:07:44.902Z,5.10
2019-02-20T16:10:12.316Z,5.00
2019-02-20T16:12:39.736Z,5.83
2019-02-20T16:15:07.196Z,6.13
2019-02-20T16:17:34.620Z,5.43
2019-02-20T16:20:02.046Z,4.87
2019-02-20T16:22:29.465Z,11.30
2019-02-20T16:24:56.888Z,5.83
2019-02-20T16:27:24.323Z,7.47
2019-02-20T16:29:51.769Z,5.73
2019-02-20T16:32:19.188Z,5.37
2019-02-20T16:34:46.590Z,6.00
2019-02-20T16:37:14.033Z,5.80
2019-02-20T16:39:41.436Z,6.27
2019-02-20T16:42:08.871Z,6.30
2019-02-20T16:44:36.275Z,6.43
2019-02-20T16:47:03.719Z,7.60
2019-02-20T16:49:31.127Z,8.43
2019-02-20T16:51:58.693Z,8.50
2019-02-20T16:54:26.132Z,8.83
2019-02-20T16:56:53.544Z,9.00
2019-02-20T16:59:20.985Z,8.47
2019-02-20T17:01:48.393Z,8.57
2019-02-20T17:04:15.801Z,8.13
2019-02-20T17:06:43.366Z,9.17
2019-02-20T17:09:10.844Z,9.00
2019-02-20T17:11:38.260Z,9.53
2019-02-20T17:14:05.686Z,9.03
2019-02-20T17:16:33.118Z,9.23
2019-02-20T17:19:00.548Z,11.03
2019-02-20T17:21:27.977Z,10.57
2019-02-20T17:23:55.421Z,12.20
2019-02-20T17:26:22.877Z,13.20
2019-02-20T17:28:50.726Z,11.67
2019-02-20T17:31:18.180Z,11.17
2019-02-20T17:33:45.707Z,11.30
2019-02-20T17:36:13.120Z,12.60
2019-02-20T17:38:40.552Z,12.40
2019-02-20T17:41:08.000Z,17.33
2019-02-20T17:43:35.426Z,18.90
2019-02-20T17:46:02.945Z,20.40
2019-02-20T17:48:30.376Z,18.63
2019-02-20T17:51:00.414Z,16.80
2019-02-20T17:53:27.921Z,17.00
2019-02-20T17:55:55.330Z,16.20
2019-02-20T17:58:22.731Z,25.40
2019-02-20T18:00:50.166Z,18.53
2019-02-20T18:03:17.575Z,18.73
2019-02-20T18:05:44.994Z,17.93
2019-02-20T18:08:12.415Z,16.70
2019-02-20T18:10:39.824Z,16.97
2019-02-20T18:13:07.286Z,17.47
2019-02-20T18:15:34.683Z,17.77
2019-02-20T18:18:02.091Z,17.37
2019-02-20T18:20:29.513Z,17.47
2019-02-20T18:22:56.975Z,18.63
2019-02-20T18:25:24.394Z,19.50
2019-02-20T18:27:51.814Z,18.80
2019-02-20T18:30:19.235Z,19.20
2019-02-20T18:32:46.675Z,19.10
2019-02-20T18:35:14.122Z,19.43
2019-02-20T18:37:41.518Z,19.17
2019-02-20T18:40:10.992Z,19.77
2019-02-20T18:42:38.407Z,19.27
2019-02-20T18:45:05.813Z,19.70
2019-02-20T18:47:33.235Z,19.70
2019-02-20T18:50:00.658Z,19.53
2019-02-20T18:52:28.125Z,21.17
2019-02-20T18:55:05.347Z,20.10
2019-02-20T18:57:23.000Z,19.83
2019-02-20T18:59:50.414Z,19.97
2019-02-20T19:02:17.970Z,20.60
2019-02-20T19:04:45.361Z,21.07
2019-02-20T19:07:12.829Z,20.40
2019-02-20T19:09:40.222Z,21.43
2019-02-20T19:12:26.385Z,22.67
2019-02-20T19:14:56.524Z,21.77
2019-02-20T19:17:32.967Z,24.37
2019-02-20T19:20:09.456Z,24.47
2019-02-20T19:22:48.626Z,25.17
2019-02-20T19:25:46.762Z,23.63
2019-02-20T19:28:32.140Z,25.13
2019-02-20T19:31:14.608Z,25.30
2019-02-20T19:33:56.970Z,22.03
2019-02-20T19:36:24.383Z,22.10
2019-02-20T19:38:51.788Z,25.20
2019-02-20T19:41:39.912Z,25.30
2019-02-20T19:44:18.901Z,24.93
2019-02-20T19:46:55.480Z,23.60
2019-02-20T19:49:22.936Z,23.43
2019-02-20T19:52:23.846Z,24.37
2019-02-20T19:55:01.898Z,25.03
2019-02-20T19:57:33.479Z,23.27
2019-02-20T20:00:09.516Z,24.03
2019-02-20T20:02:52.247Z,22.53
2019-02-20T20:05:37.525Z,23.03
2019-02-20T20:08:13.685Z,22.43
2019-02-20T20:10:59.217Z,23.57
2019-02-20T20:14:03.376Z,23.37
2019-02-20T20:17:07.904Z,22.47
2019-02-20T20:19:53.754Z,23.47
2019-02-20T20:22:54.555Z,22.23
2019-02-20T20:25:37.211Z,23.37
2019-02-20T20:28:16.406Z,22.53
2019-02-20T20:30:46.410Z,21.73
2019-02-20T20:33:28.640Z,22.43
2019-02-20T20:36:26.047Z,21.83
2019-02-20T20:39:11.485Z,22.07
2019-02-20T20:41:59.964Z,23.57
2019-02-20T20:44:48.205Z,24.13
2019-02-20T20:47:27.352Z,24.30
2019-02-20T20:50:03.234Z,22.83
2019-02-20T20:52:30.653Z,21.87
2019-02-20T20:55:16.354Z,24.43
2019-02-20T20:58:17.184Z,26.20
2019-02-20T21:01:15.515Z,25.13
2019-02-20T21:03:58.021Z,25.97
2019-02-20T21:06:40.254Z,26.90
2019-02-20T21:09:22.424Z,28.03
2019-02-20T21:12:01.674Z,26.40
2019-02-20T21:14:38.036Z,28.67
2019-02-20T21:17:15.995Z,28.90
2019-02-20T21:20:06.835Z,27.23
2019-02-20T21:23:04.104Z,25.83
2019-02-20T21:25:37.023Z,25.17
2019-02-20T21:28:18.955Z,26.30
2019-02-20T21:31:04.959Z,28.23
2019-02-20T21:33:41.216Z,28.23
2019-02-20T21:36:11.402Z,27.00
2019-02-20T21:38:44.373Z,28.33
2019-02-20T21:41:23.246Z,26.60
2019-02-20T21:43:55.884Z,29.60
2019-02-20T21:46:35.058Z,28.67
2019-02-20T21:49:17.710Z,27.67
2019-02-20T21:51:50.931Z,27.60
2019-02-20T21:54:27.479Z,28.27
2019-02-20T21:57:03.644Z,27.53
2019-02-20T21:59:38.984Z,28.10
2019-02-20T22:02:03.947Z,28.40
2019-02-20T22:04:58.324Z,26.23
2019-02-20T22:08:02.848Z,29.75
2019-02-20T22:10:33.216Z,27.20
2019-02-20T22:13:21.860Z,27.27
2019-02-20T22:16:25.849Z,27.60
2019-02-20T22:18:56.238Z,28.27
2019-02-20T22:21:48.180Z,27.07
2019-02-20T22:24:23.187Z,26.40
2019-02-20T22:27:02.980Z,28.03
2019-02-20T22:29:33.449Z,26.67
2019-02-20T22:32:00.890Z,26.33
2019-02-20T22:34:31.255Z,27.10
2019-02-20T22:37:10.308Z,26.53
2019-02-20T22:39:40.252Z,26.40
2019-02-20T22:42:13.396Z,26.97
2019-02-20T22:44:55.534Z,26.17
2019-02-20T22:47:56.472Z,27.13
2019-02-20T22:50:23.851Z,27.07
2019-02-20T22:52:51.291Z,26.53
2019-02-20T22:55:37.095Z,25.53
2019-02-20T22:58:13.281Z,24.47
2019-02-20T23:00:58.109Z,24.47
2019-02-20T23:03:31.087Z,25.50
2019-02-20T23:06:07.051Z,24.80
2019-02-20T23:08:40.244Z,26.13
2019-02-20T23:11:28.897Z,24.97
2019-02-20T23:13:59.264Z,24.93
2019-02-20T23:16:26.638Z,24.73
2019-02-20T23:18:54.098Z,25.50
2019-02-20T23:21:21.563Z,25.60
2019-02-20T23:23:48.990Z,26.67
2019-02-20T23:26:16.436Z,24.87
2019-02-20T23:28:43.840Z,25.73
2019-02-20T23:31:11.253Z,25.70
2019-02-20T23:33:38.684Z,25.33
2019-02-20T23:36:06.176Z,27.30
2019-02-20T23:38:33.599Z,24.20
2019-02-20T23:41:00.996Z,25.67
2019-02-20T23:43:28.429Z,25.60
2019-02-20T23:45:55.847Z,24.50
2019-02-20T23:48:23.274Z,26.93
2019-02-20T23:50:50.678Z,25.17
2019-02-20T23:53:18.768Z,25.40
2019-02-20T23:55:45.534Z,23.93
2019-02-20T23:58:12.943Z,24.00
